Twentynine Palms, CA (92277)

8:46 AM PDT on August 22, 2014 (GMT -0700)
MesoWest Twentynine Palms JTNP CA US SGXWFO | Change Station
CLOSE
Current Station
Personal Weather Station
Location: Twentynine Palms, CA
Elevation: 1975 ft
Nearby Weather Stations

Elev 1975 ft 34.13 °N, 116.04 °W | Updated 52 minutes ago

Clear
Clear
74 °F
Feels Like 77 °F
N
0
Wind Variable Wind from North
Gusts 0.0 mph

Today
High -- | Low -- °F
--% Chance of Precip.
Yesterday
High -- | Low -- °F
Precip. -- in
6:10 AM 7:22 PM
Waning Crescent, 8% visible
Pressure 29.99 in
Visibility 10.0 miles
Clouds Clear
Heat Index 77 °F
Dew Point 59 °F
Humidity 59%
Rainfall -999.00 in
Snow Depth Not available.
UV 2 out of 12
Pollen 5.20 out of 12
Ozone Good
Flu Activity Not available.
METAR KNXP 221456Z 00000KT 10SM CLR 21/12 A3008 RMK AO2 SLP153 T02110122 51008

More Conditions Fewer Conditions

Pressure 29.99 in
Visibility 10.0 miles
Clouds Clear
Heat Index 77 °F
Dew Point 59 °F
Humidity 59%
Rainfall -999.00 in
Snow Depth Not available.
UV 2 out of 12
Pollen 5.20 out of 12
Ozone Good
Flu Activity Not available.
METAR KNXP 221456Z 00000KT 10SM CLR 21/12 A3008 RMK AO2 SLP153 T02110122 51008

More Conditions Fewer Conditions

10-Day Weather Forecast

Almanac

Astronomy

Aug. 22, 2014 Rise Set
Actual Time 6:10 AM PDT 7:22 PM PDT
Civil Twilight 5:44 AM PDT 7:48 PM PDT
Nautical Twilight 5:13 AM PDT 8:19 PM PDT
Astronomical Twilight 4:41 AM PDT 8:51 PM PDT
Moon 3:40 AM PDT 5:31 PM PDT
Length of Visible Light 14h 04m
Length of Day
13h 12m
Tomorrow will be 1m 58s shorter.
Waning Crescent, 8% of the Moon is Illuminated
Today
Waning Crescent
Aug 25
New
Sep 2
First Quarter
Sep 8
Full
Sep 15
Last Quarter

Today's Extremes

State Highs State Lows

Community

WunderPhotos

Upload Photos

1,746,188 photos uploaded!

Nearby

Air Quality

  Air Quality AQ Index Pollutant
Yesterday Good
OZONE
Yesterday Good
PM10
Current Good
OZONE
Friday Good
PM10
Friday Good
OZONE
Friday Good
CO
Friday Good
NO2

Snow Depth

Station Depth Elevation
Leavitt Lake 0 in 9400 ft
Leavitt Meadows 1 in 7200 ft
Sonora Pass 0 in 8800 ft
Summit Meadow 0 in 9122 ft
Monitor Pass 0 in 8350 ft

Earthquake Activity

City Distance Mag. Time & Date
Big Bear City, California 46 miles 3.7 9:55 PM PDT
2014-08-17
Alberto Oviedo Mota, Mexico 142 miles 3.5 3:59 PM PDT
2014-08-17
Alberto Oviedo Mota, Mexico 141 miles 3.2 3:59 PM PDT
2014-08-17
Minimum magnitude displayed is 2.5.

Coastal Water Temperatures

Place Temperature
No Stations Reporting

Nearby Weather Stations